LIMW/AOT METAR and TAF weather

Enter ICAO airport designator
Station Type Date Time Source
LIMW METAR 2018/12/17 16:20 UTC NOAA

LIMW 171620Z AUTO 29010KT 9999 NCD 08/M03 Q1023


Station Type Date Time Source
LIMW Decoded METAR 2018/12/17 16:20 UTC NOAA

Station name not available
Dec 17, 2018 - 11:20 AM EST / 2018.12.17 1620 UTC
Wind: from the WNW (290 degrees) at 12 MPH (10 KT):0
Visibility: greater than 7 mile(s):0
Temperature: 46 F (8 C)
Dew Point: 26 F (-3 C)
Relative Humidity: 45%
Pressure (altimeter): 30.21 in. Hg (1023 hPa)
ob: LIMW 171620Z AUTO 29010KT 9999 NCD 08/M03 Q1023
cycle: 16

Station Type Date Time Source
LIMW TAF UTC NOAA

Error!


Example: see airport list